sensor_id;sensor_type;location;lat;lon;timestamp;P1;durP1;ratioP1;P2;durP2;ratioP2
65879;SDS011;52661;51.364;6.054;2022-10-22T00:02:15;2.80;;;1.03;;
65879;SDS011;52661;51.364;6.054;2022-10-22T00:04:43;3.65;;;1.20;;
65879;SDS011;52661;51.364;6.054;2022-10-22T00:07:09;4.35;;;1.50;;
65879;SDS011;52661;51.364;6.054;2022-10-22T00:09:35;6.43;;;0.90;;
65879;SDS011;52661;51.364;6.054;2022-10-22T00:12:00;4.40;;;1.00;;
65879;SDS011;52661;51.364;6.054;2022-10-22T00:14:25;4.05;;;0.93;;
65879;SDS011;52661;51.364;6.054;2022-10-22T00:16:51;3.77;;;0.97;;
65879;SDS011;52661;51.364;6.054;2022-10-22T00:19:16;4.40;;;1.00;;
65879;SDS011;52661;51.364;6.054;2022-10-22T00:21:41;5.28;;;1.00;;
65879;SDS011;52661;51.364;6.054;2022-10-22T00:24:06;2.77;;;0.80;;
65879;SDS011;52661;51.364;6.054;2022-10-22T00:26:32;3.85;;;0.63;;
65879;SDS011;52661;51.364;6.054;2022-10-22T00:28:57;3.00;;;0.70;;
65879;SDS011;52661;51.364;6.054;2022-10-22T00:31:22;3.38;;;0.73;;
65879;SDS011;52661;51.364;6.054;2022-10-22T00:33:48;4.38;;;0.50;;
65879;SDS011;52661;51.364;6.054;2022-10-22T00:36:14;2.70;;;0.85;;
65879;SDS011;52661;51.364;6.054;2022-10-22T00:38:40;3.20;;;0.85;;
65879;SDS011;52661;51.364;6.054;2022-10-22T00:41:05;5.55;;;0.93;;
65879;SDS011;52661;51.364;6.054;2022-10-22T00:43:31;3.10;;;1.27;;
65879;SDS011;52661;51.364;6.054;2022-10-22T00:45:56;2.67;;;0.75;;
65879;SDS011;52661;51.364;6.054;2022-10-22T00:48:23;3.20;;;0.90;;
65879;SDS011;52661;51.364;6.054;2022-10-22T00:50:52;4.57;;;1.13;;
65879;SDS011;52661;51.364;6.054;2022-10-22T00:53:23;2.47;;;1.25;;
65879;SDS011;52661;51.364;6.054;2022-10-22T00:55:52;3.45;;;0.90;;
65879;SDS011;52661;51.364;6.054;2022-10-22T00:58:19;5.45;;;0.93;;
65879;SDS011;52661;51.364;6.054;2022-10-22T01:00:48;2.47;;;1.05;;
65879;SDS011;52661;51.364;6.054;2022-10-22T01:03:14;3.78;;;1.13;;
65879;SDS011;52661;51.364;6.054;2022-10-22T01:05:43;5.38;;;0.98;;
65879;SDS011;52661;51.364;6.054;2022-10-22T01:08:21;3.08;;;0.98;;
65879;SDS011;52661;51.364;6.054;2022-10-22T01:16:54;3.88;;;1.13;;
65879;SDS011;52661;51.364;6.054;2022-10-22T01:19:37;3.00;;;0.88;;
65879;SDS011;52661;51.364;6.054;2022-10-22T01:30:13;4.72;;;0.90;;
65879;SDS011;52661;51.364;6.054;2022-10-22T01:32:41;3.63;;;1.73;;
65879;SDS011;52661;51.364;6.054;2022-10-22T01:35:11;6.55;;;1.13;;
65879;SDS011;52661;51.364;6.054;2022-10-22T01:37:51;4.03;;;1.15;;
65879;SDS011;52661;51.364;6.054;2022-10-22T01:40:20;5.47;;;1.00;;
65879;SDS011;52661;51.364;6.054;2022-10-22T01:42:56;2.45;;;0.77;;
65879;SDS011;52661;51.364;6.054;2022-10-22T01:45:28;6.00;;;1.30;;
65879;SDS011;52661;51.364;6.054;2022-10-22T01:54:20;6.32;;;0.82;;
65879;SDS011;52661;51.364;6.054;2022-10-22T02:02:35;3.92;;;0.85;;
65879;SDS011;52661;51.364;6.054;2022-10-22T02:05:08;6.07;;;1.13;;
65879;SDS011;52661;51.364;6.054;2022-10-22T02:07:40;3.03;;;1.15;;
65879;SDS011;52661;51.364;6.054;2022-10-22T02:10:11;4.22;;;1.00;;
65879;SDS011;52661;51.364;6.054;2022-10-22T02:12:37;3.38;;;1.05;;
65879;SDS011;52661;51.364;6.054;2022-10-22T02:15:05;3.50;;;1.40;;
65879;SDS011;52661;51.364;6.054;2022-10-22T02:17:33;3.88;;;0.98;;
65879;SDS011;52661;51.364;6.054;2022-10-22T02:22:30;3.20;;;1.00;;
65879;SDS011;52661;51.364;6.054;2022-10-22T02:24:55;5.50;;;0.98;;
65879;SDS011;52661;51.364;6.054;2022-10-22T02:27:22;4.22;;;1.10;;
65879;SDS011;52661;51.364;6.054;2022-10-22T02:35:06;8.00;;;1.30;;
65879;SDS011;52661;51.364;6.054;2022-10-22T02:37:34;4.90;;;0.88;;
65879;SDS011;52661;51.364;6.054;2022-10-22T02:40:00;4.28;;;1.08;;
65879;SDS011;52661;51.364;6.054;2022-10-22T02:42:26;5.13;;;1.13;;
65879;SDS011;52661;51.364;6.054;2022-10-22T02:44:52;3.63;;;1.20;;
65879;SDS011;52661;51.364;6.054;2022-10-22T02:47:18;4.70;;;1.20;;
65879;SDS011;52661;51.364;6.054;2022-10-22T02:49:43;6.97;;;1.65;;
65879;SDS011;52661;51.364;6.054;2022-10-22T02:52:08;8.63;;;1.20;;
65879;SDS011;52661;51.364;6.054;2022-10-22T02:54:34;7.22;;;1.08;;
65879;SDS011;52661;51.364;6.054;2022-10-22T02:57:00;3.45;;;0.98;;
65879;SDS011;52661;51.364;6.054;2022-10-22T02:59:25;3.67;;;1.03;;
65879;SDS011;52661;51.364;6.054;2022-10-22T03:01:50;4.97;;;0.93;;
65879;SDS011;52661;51.364;6.054;2022-10-22T03:04:15;6.77;;;1.10;;
65879;SDS011;52661;51.364;6.054;2022-10-22T03:06:41;6.33;;;1.10;;
65879;SDS011;52661;51.364;6.054;2022-10-22T03:09:09;4.20;;;1.35;;
65879;SDS011;52661;51.364;6.054;2022-10-22T03:11:35;4.65;;;1.23;;
65879;SDS011;52661;51.364;6.054;2022-10-22T03:14:00;6.40;;;1.30;;
65879;SDS011;52661;51.364;6.054;2022-10-22T03:16:26;5.10;;;1.10;;
65879;SDS011;52661;51.364;6.054;2022-10-22T03:18:51;3.57;;;1.20;;
65879;SDS011;52661;51.364;6.054;2022-10-22T03:21:23;6.13;;;1.35;;
65879;SDS011;52661;51.364;6.054;2022-10-22T03:23:53;4.22;;;0.90;;
65879;SDS011;52661;51.364;6.054;2022-10-22T03:26:19;2.53;;;0.77;;
65879;SDS011;52661;51.364;6.054;2022-10-22T03:28:45;3.53;;;1.13;;
65879;SDS011;52661;51.364;6.054;2022-10-22T03:31:12;3.25;;;0.98;;
65879;SDS011;52661;51.364;6.054;2022-10-22T03:33:37;5.38;;;1.45;;
65879;SDS011;52661;51.364;6.054;2022-10-22T03:36:03;3.67;;;1.00;;
65879;SDS011;52661;51.364;6.054;2022-10-22T03:38:30;4.25;;;1.15;;
65879;SDS011;52661;51.364;6.054;2022-10-22T03:40:56;3.33;;;1.20;;
65879;SDS011;52661;51.364;6.054;2022-10-22T03:43:21;5.15;;;1.45;;
65879;SDS011;52661;51.364;6.054;2022-10-22T03:45:47;8.32;;;1.27;;
65879;SDS011;52661;51.364;6.054;2022-10-22T03:48:12;5.47;;;1.63;;
65879;SDS011;52661;51.364;6.054;2022-10-22T03:50:37;3.60;;;1.77;;
65879;SDS011;52661;51.364;6.054;2022-10-22T03:53:03;5.43;;;0.80;;
65879;SDS011;52661;51.364;6.054;2022-10-22T03:55:28;3.27;;;1.50;;
65879;SDS011;52661;51.364;6.054;2022-10-22T03:57:53;3.83;;;1.00;;
65879;SDS011;52661;51.364;6.054;2022-10-22T04:00:18;5.57;;;0.90;;
65879;SDS011;52661;51.364;6.054;2022-10-22T04:02:44;5.17;;;1.20;;
65879;SDS011;52661;51.364;6.054;2022-10-22T04:05:09;7.30;;;1.30;;
65879;SDS011;52661;51.364;6.054;2022-10-22T04:07:34;3.83;;;1.13;;
65879;SDS011;52661;51.364;6.054;2022-10-22T04:10:00;3.97;;;0.95;;
65879;SDS011;52661;51.364;6.054;2022-10-22T04:12:25;2.60;;;1.00;;
65879;SDS011;52661;51.364;6.054;2022-10-22T04:14:50;3.33;;;1.03;;
65879;SDS011;52661;51.364;6.054;2022-10-22T04:17:16;4.97;;;0.80;;
65879;SDS011;52661;51.364;6.054;2022-10-22T04:19:41;4.80;;;1.10;;
65879;SDS011;52661;51.364;6.054;2022-10-22T04:22:07;2.38;;;0.98;;
65879;SDS011;52661;51.364;6.054;2022-10-22T04:24:32;4.03;;;1.40;;
65879;SDS011;52661;51.364;6.054;2022-10-22T04:26:57;7.35;;;1.48;;
65879;SDS011;52661;51.364;6.054;2022-10-22T04:29:23;5.25;;;1.27;;
65879;SDS011;52661;51.364;6.054;2022-10-22T04:31:49;7.78;;;2.05;;
65879;SDS011;52661;51.364;6.054;2022-10-22T04:34:14;5.90;;;1.38;;
65879;SDS011;52661;51.364;6.054;2022-10-22T04:36:40;7.80;;;1.30;;
65879;SDS011;52661;51.364;6.054;2022-10-22T04:39:05;3.37;;;1.30;;
65879;SDS011;52661;51.364;6.054;2022-10-22T04:41:31;4.88;;;1.70;;
65879;SDS011;52661;51.364;6.054;2022-10-22T04:44:01;7.35;;;2.33;;
65879;SDS011;52661;51.364;6.054;2022-10-22T04:46:28;6.28;;;1.63;;
65879;SDS011;52661;51.364;6.054;2022-10-22T04:48:55;4.03;;;2.20;;
65879;SDS011;52661;51.364;6.054;2022-10-22T04:51:21;7.05;;;1.77;;
65879;SDS011;52661;51.364;6.054;2022-10-22T04:53:48;8.50;;;1.45;;
65879;SDS011;52661;51.364;6.054;2022-10-22T04:56:17;5.70;;;1.65;;
65879;SDS011;52661;51.364;6.054;2022-10-22T04:58:48;5.82;;;1.48;;
65879;SDS011;52661;51.364;6.054;2022-10-22T05:01:22;6.18;;;1.85;;
65879;SDS011;52661;51.364;6.054;2022-10-22T05:03:51;4.50;;;1.70;;
65879;SDS011;52661;51.364;6.054;2022-10-22T05:06:19;5.47;;;1.58;;
65879;SDS011;52661;51.364;6.054;2022-10-22T05:08:45;5.53;;;2.08;;
65879;SDS011;52661;51.364;6.054;2022-10-22T05:11:11;3.70;;;1.60;;
65879;SDS011;52661;51.364;6.054;2022-10-22T05:13:47;3.80;;;1.90;;
65879;SDS011;52661;51.364;6.054;2022-10-22T05:16:13;4.18;;;1.50;;
65879;SDS011;52661;51.364;6.054;2022-10-22T05:18:39;5.47;;;1.45;;
65879;SDS011;52661;51.364;6.054;2022-10-22T05:23:36;5.22;;;1.10;;
65879;SDS011;52661;51.364;6.054;2022-10-22T05:26:02;5.20;;;1.83;;
65879;SDS011;52661;51.364;6.054;2022-10-22T05:28:29;5.82;;;1.70;;
65879;SDS011;52661;51.364;6.054;2022-10-22T05:30:55;6.15;;;1.52;;
65879;SDS011;52661;51.364;6.054;2022-10-22T05:33:21;4.10;;;1.23;;
65879;SDS011;52661;51.364;6.054;2022-10-22T05:35:50;5.68;;;1.67;;
65879;SDS011;52661;51.364;6.054;2022-10-22T05:38:16;5.55;;;1.70;;
65879;SDS011;52661;51.364;6.054;2022-10-22T05:40:42;7.38;;;1.90;;
65879;SDS011;52661;51.364;6.054;2022-10-22T05:43:08;6.10;;;2.10;;
65879;SDS011;52661;51.364;6.054;2022-10-22T05:45:40;8.50;;;1.85;;
65879;SDS011;52661;51.364;6.054;2022-10-22T05:48:06;5.65;;;2.28;;
65879;SDS011;52661;51.364;6.054;2022-10-22T05:50:36;4.38;;;1.80;;
65879;SDS011;52661;51.364;6.054;2022-10-22T05:53:03;8.20;;;2.58;;
65879;SDS011;52661;51.364;6.054;2022-10-22T05:55:29;8.90;;;2.13;;
65879;SDS011;52661;51.364;6.054;2022-10-22T05:58:00;4.40;;;1.38;;
65879;SDS011;52661;51.364;6.054;2022-10-22T06:00:26;7.68;;;1.63;;
65879;SDS011;52661;51.364;6.054;2022-10-22T06:02:51;4.43;;;1.80;;
65879;SDS011;52661;51.364;6.054;2022-10-22T06:05:17;6.93;;;1.87;;
65879;SDS011;52661;51.364;6.054;2022-10-22T06:07:42;8.67;;;1.70;;
65879;SDS011;52661;51.364;6.054;2022-10-22T06:10:09;5.82;;;2.03;;
65879;SDS011;52661;51.364;6.054;2022-10-22T06:12:39;9.48;;;4.15;;
65879;SDS011;52661;51.364;6.054;2022-10-22T06:15:05;6.57;;;1.73;;
65879;SDS011;52661;51.364;6.054;2022-10-22T06:17:31;5.95;;;2.67;;
65879;SDS011;52661;51.364;6.054;2022-10-22T06:19:56;6.50;;;1.70;;
65879;SDS011;52661;51.364;6.054;2022-10-22T06:22:21;5.37;;;1.60;;
65879;SDS011;52661;51.364;6.054;2022-10-22T06:24:46;6.70;;;1.67;;
65879;SDS011;52661;51.364;6.054;2022-10-22T06:27:12;5.77;;;1.90;;
65879;SDS011;52661;51.364;6.054;2022-10-22T06:29:37;8.17;;;2.63;;
65879;SDS011;52661;51.364;6.054;2022-10-22T06:32:02;5.10;;;1.60;;
65879;SDS011;52661;51.364;6.054;2022-10-22T06:34:28;4.70;;;1.40;;
65879;SDS011;52661;51.364;6.054;2022-10-22T06:36:53;5.30;;;1.30;;
65879;SDS011;52661;51.364;6.054;2022-10-22T06:39:18;8.47;;;1.57;;
65879;SDS011;52661;51.364;6.054;2022-10-22T06:41:44;6.80;;;1.30;;
65879;SDS011;52661;51.364;6.054;2022-10-22T06:44:14;6.10;;;1.52;;
65879;SDS011;52661;51.364;6.054;2022-10-22T06:46:40;4.30;;;1.17;;
65879;SDS011;52661;51.364;6.054;2022-10-22T06:49:06;7.78;;;1.20;;
65879;SDS011;52661;51.364;6.054;2022-10-22T06:51:36;5.32;;;1.40;;
65879;SDS011;52661;51.364;6.054;2022-10-22T06:54:01;3.93;;;1.07;;
65879;SDS011;52661;51.364;6.054;2022-10-22T06:56:27;6.83;;;0.97;;
65879;SDS011;52661;51.364;6.054;2022-10-22T06:58:53;8.45;;;1.67;;
65879;SDS011;52661;51.364;6.054;2022-10-22T07:01:21;3.65;;;1.08;;
65879;SDS011;52661;51.364;6.054;2022-10-22T07:03:51;3.53;;;1.20;;
65879;SDS011;52661;51.364;6.054;2022-10-22T07:06:17;4.95;;;0.98;;
65879;SDS011;52661;51.364;6.054;2022-10-22T07:08:43;5.78;;;1.35;;
65879;SDS011;52661;51.364;6.054;2022-10-22T07:11:10;8.25;;;1.25;;
65879;SDS011;52661;51.364;6.054;2022-10-22T07:13:37;7.30;;;0.93;;
65879;SDS011;52661;51.364;6.054;2022-10-22T07:16:03;3.67;;;0.88;;
65879;SDS011;52661;51.364;6.054;2022-10-22T07:18:30;7.30;;;0.90;;
65879;SDS011;52661;51.364;6.054;2022-10-22T07:20:57;5.05;;;0.70;;
65879;SDS011;52661;51.364;6.054;2022-10-22T07:23:23;6.65;;;1.02;;
65879;SDS011;52661;51.364;6.054;2022-10-22T07:25:49;5.47;;;0.93;;
65879;SDS011;52661;51.364;6.054;2022-10-22T07:28:14;8.60;;;0.90;;
65879;SDS011;52661;51.364;6.054;2022-10-22T07:30:39;7.20;;;0.70;;
65879;SDS011;52661;51.364;6.054;2022-10-22T07:33:05;7.75;;;0.95;;
65879;SDS011;52661;51.364;6.054;2022-10-22T07:35:30;4.05;;;1.02;;
65879;SDS011;52661;51.364;6.054;2022-10-22T07:37:56;2.60;;;0.60;;
65879;SDS011;52661;51.364;6.054;2022-10-22T07:40:22;5.47;;;1.17;;
65879;SDS011;52661;51.364;6.054;2022-10-22T07:42:47;4.03;;;0.80;;
65879;SDS011;52661;51.364;6.054;2022-10-22T07:45:12;4.67;;;0.60;;
65879;SDS011;52661;51.364;6.054;2022-10-22T07:47:38;10.95;;;0.90;;
65879;SDS011;52661;51.364;6.054;2022-10-22T07:50:04;3.55;;;0.50;;
65879;SDS011;52661;51.364;6.054;2022-10-22T07:52:31;5.00;;;1.23;;
65879;SDS011;52661;51.364;6.054;2022-10-22T07:54:56;5.93;;;1.70;;
65879;SDS011;52661;51.364;6.054;2022-10-22T07:57:22;4.00;;;1.03;;
65879;SDS011;52661;51.364;6.054;2022-10-22T07:59:47;3.27;;;0.83;;
65879;SDS011;52661;51.364;6.054;2022-10-22T08:02:12;3.63;;;0.63;;
65879;SDS011;52661;51.364;6.054;2022-10-22T08:04:37;2.67;;;0.40;;
65879;SDS011;52661;51.364;6.054;2022-10-22T08:07:03;5.18;;;0.73;;
65879;SDS011;52661;51.364;6.054;2022-10-22T08:09:29;4.97;;;0.80;;
65879;SDS011;52661;51.364;6.054;2022-10-22T08:11:54;5.65;;;0.63;;
65879;SDS011;52661;51.364;6.054;2022-10-22T08:14:19;4.10;;;1.07;;
65879;SDS011;52661;51.364;6.054;2022-10-22T08:16:45;5.45;;;0.70;;
65879;SDS011;52661;51.364;6.054;2022-10-22T08:19:11;4.28;;;0.40;;
65879;SDS011;52661;51.364;6.054;2022-10-22T08:21:37;4.45;;;0.90;;
65879;SDS011;52661;51.364;6.054;2022-10-22T08:24:03;5.07;;;0.70;;
65879;SDS011;52661;51.364;6.054;2022-10-22T08:26:28;2.78;;;0.35;;
65879;SDS011;52661;51.364;6.054;2022-10-22T08:28:54;3.50;;;0.53;;
65879;SDS011;52661;51.364;6.054;2022-10-22T08:31:19;1.47;;;0.50;;
65879;SDS011;52661;51.364;6.054;2022-10-22T08:33:44;4.57;;;0.70;;
65879;SDS011;52661;51.364;6.054;2022-10-22T08:36:10;6.35;;;0.90;;
65879;SDS011;52661;51.364;6.054;2022-10-22T08:38:35;3.87;;;0.73;;
65879;SDS011;52661;51.364;6.054;2022-10-22T08:41:11;6.07;;;0.75;;
65879;SDS011;52661;51.364;6.054;2022-10-22T08:43:58;8.60;;;0.60;;
65879;SDS011;52661;51.364;6.054;2022-10-22T08:46:39;5.90;;;0.70;;
65879;SDS011;52661;51.364;6.054;2022-10-22T08:49:26;3.75;;;0.63;;
65879;SDS011;52661;51.364;6.054;2022-10-22T08:51:55;6.30;;;0.60;;
65879;SDS011;52661;51.364;6.054;2022-10-22T09:02:08;2.90;;;0.50;;
65879;SDS011;52661;51.364;6.054;2022-10-22T09:04:48;3.53;;;0.57;;
65879;SDS011;52661;51.364;6.054;2022-10-22T09:07:20;5.50;;;0.50;;
65879;SDS011;52661;51.364;6.054;2022-10-22T09:09:46;11.25;;;1.00;;
65879;SDS011;52661;51.364;6.054;2022-10-22T09:12:16;5.70;;;0.55;;
65879;SDS011;52661;51.364;6.054;2022-10-22T09:14:42;4.35;;;0.73;;
65879;SDS011;52661;51.364;6.054;2022-10-22T09:20:08;6.82;;;0.73;;
65879;SDS011;52661;51.364;6.054;2022-10-22T09:22:45;4.20;;;0.38;;
65879;SDS011;52661;51.364;6.054;2022-10-22T09:25:35;4.50;;;0.55;;
65879;SDS011;52661;51.364;6.054;2022-10-22T09:28:01;1.73;;;0.40;;
65879;SDS011;52661;51.364;6.054;2022-10-22T09:30:33;6.60;;;0.55;;
65879;SDS011;52661;51.364;6.054;2022-10-22T09:33:05;6.47;;;1.08;;
65879;SDS011;52661;51.364;6.054;2022-10-22T09:38:18;2.83;;;0.40;;
65879;SDS011;52661;51.364;6.054;2022-10-22T09:40:51;5.10;;;1.58;;
65879;SDS011;52661;51.364;6.054;2022-10-22T09:43:18;4.35;;;0.65;;
65879;SDS011;52661;51.364;6.054;2022-10-22T09:45:47;3.25;;;0.57;;
65879;SDS011;52661;51.364;6.054;2022-10-22T09:48:20;2.92;;;0.40;;
65879;SDS011;52661;51.364;6.054;2022-10-22T09:51:02;3.08;;;0.60;;
65879;SDS011;52661;51.364;6.054;2022-10-22T09:53:37;4.78;;;0.75;;
65879;SDS011;52661;51.364;6.054;2022-10-22T09:56:08;2.47;;;0.57;;
65879;SDS011;52661;51.364;6.054;2022-10-22T09:58:48;5.47;;;1.13;;
65879;SDS011;52661;51.364;6.054;2022-10-22T10:01:16;3.65;;;0.50;;
65879;SDS011;52661;51.364;6.054;2022-10-22T10:04:04;2.78;;;1.42;;
65879;SDS011;52661;51.364;6.054;2022-10-22T10:06:32;5.00;;;1.42;;
65879;SDS011;52661;51.364;6.054;2022-10-22T10:08:58;5.45;;;0.50;;
65879;SDS011;52661;51.364;6.054;2022-10-22T10:11:51;5.55;;;0.80;;
65879;SDS011;52661;51.364;6.054;2022-10-22T10:14:27;5.07;;;0.40;;
65879;SDS011;52661;51.364;6.054;2022-10-22T10:17:09;5.82;;;1.05;;
65879;SDS011;52661;51.364;6.054;2022-10-22T10:28:20;7.15;;;0.80;;
65879;SDS011;52661;51.364;6.054;2022-10-22T10:33:50;3.30;;;1.10;;
65879;SDS011;52661;51.364;6.054;2022-10-22T10:42:36;8.02;;;0.65;;
65879;SDS011;52661;51.364;6.054;2022-10-22T10:50:53;4.75;;;0.40;;
65879;SDS011;52661;51.364;6.054;2022-10-22T11:01:51;4.82;;;0.30;;
65879;SDS011;52661;51.364;6.054;2022-10-22T11:07:31;3.17;;;0.20;;
65879;SDS011;52661;51.364;6.054;2022-10-22T11:10:05;5.53;;;0.30;;
65879;SDS011;52661;51.364;6.054;2022-10-22T11:12:41;1.45;;;0.25;;
65879;SDS011;52661;51.364;6.054;2022-10-22T11:15:21;2.60;;;0.70;;
65879;SDS011;52661;51.364;6.054;2022-10-22T11:17:52;2.35;;;0.45;;
65879;SDS011;52661;51.364;6.054;2022-10-22T11:20:27;3.22;;;0.30;;
65879;SDS011;52661;51.364;6.054;2022-10-22T11:23:05;1.98;;;0.40;;
65879;SDS011;52661;51.364;6.054;2022-10-22T11:25:41;2.17;;;0.22;;
65879;SDS011;52661;51.364;6.054;2022-10-22T11:30:44;8.55;;;0.55;;
65879;SDS011;52661;51.364;6.054;2022-10-22T11:33:17;4.28;;;0.63;;
65879;SDS011;52661;51.364;6.054;2022-10-22T11:35:45;5.35;;;0.70;;
65879;SDS011;52661;51.364;6.054;2022-10-22T11:38:13;5.47;;;0.40;;
65879;SDS011;52661;51.364;6.054;2022-10-22T11:43:25;1.88;;;0.40;;
65879;SDS011;52661;51.364;6.054;2022-10-22T11:45:53;5.40;;;0.40;;
65879;SDS011;52661;51.364;6.054;2022-10-22T11:48:39;2.97;;;0.30;;
65879;SDS011;52661;51.364;6.054;2022-10-22T11:51:27;5.03;;;0.35;;
65879;SDS011;52661;51.364;6.054;2022-10-22T11:53:57;4.38;;;0.60;;
65879;SDS011;52661;51.364;6.054;2022-10-22T11:56:28;4.63;;;0.40;;
65879;SDS011;52661;51.364;6.054;2022-10-22T11:59:07;4.30;;;0.50;;
65879;SDS011;52661;51.364;6.054;2022-10-22T12:02:22;2.97;;;0.40;;
65879;SDS011;52661;51.364;6.054;2022-10-22T12:10:18;4.18;;;0.60;;
65879;SDS011;52661;51.364;6.054;2022-10-22T12:12:50;3.22;;;0.40;;
65879;SDS011;52661;51.364;6.054;2022-10-22T12:15:20;6.30;;;0.70;;
65879;SDS011;52661;51.364;6.054;2022-10-22T12:17:48;4.90;;;0.57;;
65879;SDS011;52661;51.364;6.054;2022-10-22T12:20:14;4.00;;;0.43;;
65879;SDS011;52661;51.364;6.054;2022-10-22T12:22:41;3.45;;;0.75;;
65879;SDS011;52661;51.364;6.054;2022-10-22T12:25:16;3.22;;;0.50;;
65879;SDS011;52661;51.364;6.054;2022-10-22T12:27:48;2.03;;;0.32;;
65879;SDS011;52661;51.364;6.054;2022-10-22T12:30:18;6.63;;;0.82;;
65879;SDS011;52661;51.364;6.054;2022-10-22T12:32:52;6.65;;;0.55;;
65879;SDS011;52661;51.364;6.054;2022-10-22T12:35:21;5.20;;;1.23;;
65879;SDS011;52661;51.364;6.054;2022-10-22T12:38:22;4.95;;;0.40;;
65879;SDS011;52661;51.364;6.054;2022-10-22T12:40:50;3.30;;;0.30;;
65879;SDS011;52661;51.364;6.054;2022-10-22T12:43:18;5.55;;;0.40;;
65879;SDS011;52661;51.364;6.054;2022-10-22T12:45:49;1.25;;;0.45;;
65879;SDS011;52661;51.364;6.054;2022-10-22T12:48:19;6.25;;;0.63;;
65879;SDS011;52661;51.364;6.054;2022-10-22T12:50:51;3.85;;;0.73;;
65879;SDS011;52661;51.364;6.054;2022-10-22T12:53:31;5.47;;;0.90;;
65879;SDS011;52661;51.364;6.054;2022-10-22T12:56:04;6.50;;;0.40;;
65879;SDS011;52661;51.364;6.054;2022-10-22T12:58:42;6.15;;;0.70;;
65879;SDS011;52661;51.364;6.054;2022-10-22T13:01:11;3.58;;;0.63;;
65879;SDS011;52661;51.364;6.054;2022-10-22T13:03:42;4.72;;;0.68;;
65879;SDS011;52661;51.364;6.054;2022-10-22T13:06:10;7.18;;;1.20;;
65879;SDS011;52661;51.364;6.054;2022-10-22T13:08:42;4.88;;;0.98;;
65879;SDS011;52661;51.364;6.054;2022-10-22T13:11:08;3.75;;;0.68;;
65879;SDS011;52661;51.364;6.054;2022-10-22T13:16:13;5.87;;;0.50;;
65879;SDS011;52661;51.364;6.054;2022-10-22T13:18:50;2.72;;;0.70;;
65879;SDS011;52661;51.364;6.054;2022-10-22T13:24:21;5.82;;;0.50;;
65879;SDS011;52661;51.364;6.054;2022-10-22T13:26:48;4.15;;;0.75;;
65879;SDS011;52661;51.364;6.054;2022-10-22T13:29:16;7.47;;;0.47;;
65879;SDS011;52661;51.364;6.054;2022-10-22T13:31:44;4.35;;;0.68;;
65879;SDS011;52661;51.364;6.054;2022-10-22T13:34:13;2.70;;;0.40;;
65879;SDS011;52661;51.364;6.054;2022-10-22T13:36:44;7.05;;;0.88;;
65879;SDS011;52661;51.364;6.054;2022-10-22T13:39:17;5.80;;;2.08;;
65879;SDS011;52661;51.364;6.054;2022-10-22T13:41:44;2.88;;;0.30;;
65879;SDS011;52661;51.364;6.054;2022-10-22T13:44:09;5.53;;;0.80;;
65879;SDS011;52661;51.364;6.054;2022-10-22T13:46:35;3.50;;;0.88;;
65879;SDS011;52661;51.364;6.054;2022-10-22T13:49:06;5.55;;;0.73;;
65879;SDS011;52661;51.364;6.054;2022-10-22T13:51:37;4.00;;;0.85;;
65879;SDS011;52661;51.364;6.054;2022-10-22T13:54:03;6.20;;;0.47;;
65879;SDS011;52661;51.364;6.054;2022-10-22T13:56:39;2.83;;;0.45;;
65879;SDS011;52661;51.364;6.054;2022-10-22T13:59:05;3.60;;;0.50;;
65879;SDS011;52661;51.364;6.054;2022-10-22T14:01:30;2.70;;;0.37;;
65879;SDS011;52661;51.364;6.054;2022-10-22T14:03:56;4.45;;;0.93;;
65879;SDS011;52661;51.364;6.054;2022-10-22T14:06:24;6.35;;;0.55;;
65879;SDS011;52661;51.364;6.054;2022-10-22T14:08:59;8.38;;;0.73;;
65879;SDS011;52661;51.364;6.054;2022-10-22T14:11:27;5.93;;;0.60;;
65879;SDS011;52661;51.364;6.054;2022-10-22T14:16:20;5.33;;;0.50;;
65879;SDS011;52661;51.364;6.054;2022-10-22T14:18:48;2.55;;;0.43;;
65879;SDS011;52661;51.364;6.054;2022-10-22T14:21:14;4.05;;;0.55;;
65879;SDS011;52661;51.364;6.054;2022-10-22T14:23:41;2.30;;;0.30;;
65879;SDS011;52661;51.364;6.054;2022-10-22T14:26:08;5.47;;;0.40;;
65879;SDS011;52661;51.364;6.054;2022-10-22T14:28:44;7.13;;;1.27;;
65879;SDS011;52661;51.364;6.054;2022-10-22T14:31:10;6.15;;;0.50;;
65879;SDS011;52661;51.364;6.054;2022-10-22T14:33:35;4.67;;;0.30;;
65879;SDS011;52661;51.364;6.054;2022-10-22T14:36:00;4.35;;;0.32;;
65879;SDS011;52661;51.364;6.054;2022-10-22T14:38:26;2.13;;;0.43;;
65879;SDS011;52661;51.364;6.054;2022-10-22T14:40:51;4.47;;;0.40;;
65879;SDS011;52661;51.364;6.054;2022-10-22T14:45:53;2.70;;;0.60;;
65879;SDS011;52661;51.364;6.054;2022-10-22T14:48:19;3.42;;;0.40;;
65879;SDS011;52661;51.364;6.054;2022-10-22T14:50:44;4.57;;;0.45;;
65879;SDS011;52661;51.364;6.054;2022-10-22T14:53:11;4.82;;;0.22;;
65879;SDS011;52661;51.364;6.054;2022-10-22T14:55:37;3.72;;;0.30;;
65879;SDS011;52661;51.364;6.054;2022-10-22T14:58:03;2.17;;;0.30;;
65879;SDS011;52661;51.364;6.054;2022-10-22T15:00:28;5.30;;;0.50;;
65879;SDS011;52661;51.364;6.054;2022-10-22T15:02:54;9.47;;;0.33;;
65879;SDS011;52661;51.364;6.054;2022-10-22T15:05:20;4.75;;;0.30;;
65879;SDS011;52661;51.364;6.054;2022-10-22T15:07:46;2.65;;;0.30;;
65879;SDS011;52661;51.364;6.054;2022-10-22T15:10:11;4.57;;;0.35;;
65879;SDS011;52661;51.364;6.054;2022-10-22T15:12:37;3.05;;;0.30;;
65879;SDS011;52661;51.364;6.054;2022-10-22T15:15:02;4.67;;;0.30;;
65879;SDS011;52661;51.364;6.054;2022-10-22T15:17:28;3.05;;;1.25;;
65879;SDS011;52661;51.364;6.054;2022-10-22T15:19:53;3.87;;;0.40;;
65879;SDS011;52661;51.364;6.054;2022-10-22T15:22:20;5.82;;;0.50;;
65879;SDS011;52661;51.364;6.054;2022-10-22T15:24:46;3.38;;;0.38;;
65879;SDS011;52661;51.364;6.054;2022-10-22T15:27:13;3.33;;;0.43;;
65879;SDS011;52661;51.364;6.054;2022-10-22T15:29:38;3.97;;;0.40;;
65879;SDS011;52661;51.364;6.054;2022-10-22T15:32:05;5.35;;;0.63;;
65879;SDS011;52661;51.364;6.054;2022-10-22T15:34:32;3.35;;;0.50;;
65879;SDS011;52661;51.364;6.054;2022-10-22T15:36:59;2.40;;;0.47;;
65879;SDS011;52661;51.364;6.054;2022-10-22T15:39:27;4.03;;;0.63;;
65879;SDS011;52661;51.364;6.054;2022-10-22T15:41:53;4.03;;;1.50;;
65879;SDS011;52661;51.364;6.054;2022-10-22T15:44:20;13.77;;;6.00;;
65879;SDS011;52661;51.364;6.054;2022-10-22T15:46:47;8.30;;;3.00;;
65879;SDS011;52661;51.364;6.054;2022-10-22T15:49:14;5.95;;;1.70;;
65879;SDS011;52661;51.364;6.054;2022-10-22T15:51:40;7.60;;;1.30;;
65879;SDS011;52661;51.364;6.054;2022-10-22T15:54:05;3.80;;;1.50;;
65879;SDS011;52661;51.364;6.054;2022-10-22T15:56:31;4.23;;;1.10;;
65879;SDS011;52661;51.364;6.054;2022-10-22T15:58:57;5.38;;;1.13;;
65879;SDS011;52661;51.364;6.054;2022-10-22T16:01:24;4.35;;;0.90;;
65879;SDS011;52661;51.364;6.054;2022-10-22T16:03:51;6.13;;;2.38;;
65879;SDS011;52661;51.364;6.054;2022-10-22T16:06:24;6.18;;;0.88;;
65879;SDS011;52661;51.364;6.054;2022-10-22T16:08:50;5.88;;;0.88;;
65879;SDS011;52661;51.364;6.054;2022-10-22T16:11:16;2.60;;;0.73;;
65879;SDS011;52661;51.364;6.054;2022-10-22T16:13:41;6.20;;;0.93;;
65879;SDS011;52661;51.364;6.054;2022-10-22T16:16:06;5.40;;;0.60;;
65879;SDS011;52661;51.364;6.054;2022-10-22T16:18:32;5.60;;;0.90;;
65879;SDS011;52661;51.364;6.054;2022-10-22T16:20:58;5.57;;;1.15;;
65879;SDS011;52661;51.364;6.054;2022-10-22T16:23:23;6.03;;;0.70;;
65879;SDS011;52661;51.364;6.054;2022-10-22T16:25:48;6.55;;;1.20;;
65879;SDS011;52661;51.364;6.054;2022-10-22T16:28:14;5.87;;;1.77;;
65879;SDS011;52661;51.364;6.054;2022-10-22T16:30:39;4.93;;;1.80;;
65879;SDS011;52661;51.364;6.054;2022-10-22T16:33:05;5.63;;;1.65;;
65879;SDS011;52661;51.364;6.054;2022-10-22T16:35:31;8.02;;;2.25;;
65879;SDS011;52661;51.364;6.054;2022-10-22T16:37:57;9.10;;;2.90;;
65879;SDS011;52661;51.364;6.054;2022-10-22T16:40:22;7.25;;;2.40;;
65879;SDS011;52661;51.364;6.054;2022-10-22T16:42:48;5.20;;;2.90;;